Terminal Aerodrome Forecast
Issued by NWS Binghamton, NY

Home | Current Version | Previous Version | Text Only | Print | Product List | Glossary On
Versions: 1 2 3 4 5 6 7 8 9 10 11 12 13 14 15 16 17 18 19 20
535
FTUS41 KBGM 291129
TAFBGM
TAF
KBGM 291129Z 2912/3012 VRB04KT P6SM OVC040
     FM291600 15005KT P6SM OVC025
     FM292100 VRB04KT 4SM -SHRA BR OVC015
     FM300400 VRB03KT 3SM BR OVC015=

USA.gov is the U.S. government's official web portal to all federal, state and local government web resources and services.